Flight Track Log - Related Links

Times and Time Zones

All times are in EDT time to prevent confusion due to time zone crossing. See the SKW6253 flight status page for this flight to view local times or setup timezone preferences in your user account.

Time Position Orientation Groundspeed Altitude Reporting Facility
EDT Latitude Longitude Course Direction KTS MPH feet Rate Location/Type
Wed 01:39:18 PM 39.9000 -104.7167 255° West 189 217 7,200  Level Denver TRACON
Wed 01:40:18 PM 39.8833 -104.8000 255° West 276 318 9,300 1,838 Climbing Denver TRACON
Wed 01:41:00 PM 39.7647 -105.0178 250° West  Level Estimated
Wed 01:41:09 PM 39.8717 -104.8839 260° West 272 313 10,600  Level Denver Center
Wed 01:42:00 PM 39.7580 -105.1397 266° West  Level FlightAware Approximate
Wed 01:42:11 PM 39.8500 -104.9825 254° West 280 322 13,600  Level Denver Center
Wed 01:43:00 PM 39.7238 -105.2535 270° West  Level Estimated
Wed 01:43:13 PM 39.8261 -105.0928 254° West 292 336 16,400  Level Denver Center
Wed 01:44:00 PM 39.6894 -105.3672 255° West  Level Estimated
Wed 01:44:15 PM 39.8025 -105.1997 254° West 303 349 18,800  Level Denver Center
Wed 01:45:17 PM 39.7764 -105.3175 254° West 312 359 20,800 1,561 Climbing Denver Center
Wed 01:46:18 PM 39.7561 -105.4125 255° West 317 365 22,000 581 Climbing Denver Center
Wed 01:47:21 PM 39.7203 -105.5714 254° West 385 443 22,000  Level Denver Center
Wed 01:48:23 PM 39.6917 -105.7089 255° West 395 455 22,000  Level Denver Center
Wed 01:49:25 PM 39.6781 -105.8464 263° West 392 451 22,000 -387 Level Denver Center
Wed 01:50:27 PM 39.6658 -105.9758 263° West 368 423 21,200 -919 Descending Denver Center
Wed 01:51:29 PM 39.6497 -106.1078 261° West 368 423 20,100 -581 Descending Denver Center
Wed 01:52:31 PM 39.6353 -106.2494 263° West 364 419 20,000 -48 Descending Denver Center
Wed 01:53:33 PM 39.6164 -106.3644 258° West 330 380 20,000  Level Denver Center
Wed 01:54:35 PM 39.5919 -106.4725 254° West 316 364 20,000  Level Denver Center
Wed 01:55:37 PM 39.5650 -106.5936 254° West 319 367 20,000 -242 Level Denver Center
Wed 01:56:39 PM 39.5389 -106.7022 253° West 281 323 19,500 -1,258 Descending Denver Center
Wed 01:57:41 PM 39.4978 -106.7797 236° Southwest 274 315 17,400 -2,177 Descending Denver Center
Wed 01:58:43 PM 39.4525 -106.8675 236° Southwest 266 306 15,000 -1,694 Descending Denver Center
Wed 01:59:45 PM 39.4158 -106.9167 226° Southwest 229 264 13,900 -1,324 Descending Denver Center
Wed 02:00:59 PM 39.3600 -106.9336 193° South 192 221 12,000 -1,544 Descending Denver Center
Wed 02:02:01 PM 39.2986 -106.9056 161° South 187 215 10,400 -1,694 Descending Denver Center
Wed 02:03:03 PM 39.2522 -106.8836 160° South 183 211 8,500 -1,839 Descending Denver Center

Login

Don't have an account? Register now (free) for customized features, flight alerts, and more!